sensor_id;sensor_type;location;lat;lon;timestamp;pressure;altitude;pressure_sealevel;temperature;humidity
22580;BME280;11456;47.030;15.396;2023-10-31T00:00:26;96147.03;;;14.37;100.00
22580;BME280;11456;47.030;15.396;2023-10-31T00:02:52;96132.59;;;14.57;100.00
22580;BME280;11456;47.030;15.396;2023-10-31T00:05:19;96142.38;;;14.58;100.00
22580;BME280;11456;47.030;15.396;2023-10-31T00:07:47;96139.75;;;14.18;100.00
22580;BME280;11456;47.030;15.396;2023-10-31T00:10:14;96129.09;;;14.36;100.00
22580;BME280;11456;47.030;15.396;2023-10-31T00:12:41;96155.63;;;14.08;100.00
22580;BME280;11456;47.030;15.396;2023-10-31T00:15:07;96136.38;;;14.29;100.00
22580;BME280;11456;47.030;15.396;2023-10-31T00:17:34;96141.72;;;14.69;100.00
22580;BME280;11456;47.030;15.396;2023-10-31T00:20:01;96139.75;;;14.25;100.00
22580;BME280;11456;47.030;15.396;2023-10-31T00:22:28;96134.97;;;14.20;100.00
22580;BME280;11456;47.030;15.396;2023-10-31T00:24:54;96138.06;;;14.30;100.00
22580;BME280;11456;47.030;15.396;2023-10-31T00:27:21;96140.34;;;14.47;100.00
22580;BME280;11456;47.030;15.396;2023-10-31T00:29:47;96122.44;;;14.32;100.00
22580;BME280;11456;47.030;15.396;2023-10-31T00:32:14;96123.47;;;14.44;100.00
22580;BME280;11456;47.030;15.396;2023-10-31T00:34:41;96133.28;;;14.32;100.00
22580;BME280;11456;47.030;15.396;2023-10-31T00:37:07;96129.72;;;14.32;100.00
22580;BME280;11456;47.030;15.396;2023-10-31T00:39:34;96118.88;;;14.45;100.00
22580;BME280;11456;47.030;15.396;2023-10-31T00:42:01;96136.84;;;14.26;100.00
22580;BME280;11456;47.030;15.396;2023-10-31T00:44:27;96127.22;;;14.43;100.00
22580;BME280;11456;47.030;15.396;2023-10-31T00:46:54;96124.69;;;14.55;100.00
22580;BME280;11456;47.030;15.396;2023-10-31T00:49:21;96111.34;;;14.54;100.00
22580;BME280;11456;47.030;15.396;2023-10-31T00:51:47;96123.03;;;14.48;100.00
22580;BME280;11456;47.030;15.396;2023-10-31T00:54:14;96099.59;;;14.66;100.00
22580;BME280;11456;47.030;15.396;2023-10-31T00:56:41;96144.13;;;14.26;100.00
22580;BME280;11456;47.030;15.396;2023-10-31T00:59:07;96099.59;;;14.66;100.00
22580;BME280;11456;47.030;15.396;2023-10-31T01:01:34;96103.25;;;14.85;100.00
22580;BME280;11456;47.030;15.396;2023-10-31T01:04:01;96092.72;;;15.08;100.00
22580;BME280;11456;47.030;15.396;2023-10-31T01:06:27;96105.97;;;14.85;100.00
22580;BME280;11456;47.030;15.396;2023-10-31T01:08:54;96099.56;;;15.11;100.00
22580;BME280;11456;47.030;15.396;2023-10-31T01:11:21;96116.25;;;15.14;100.00
22580;BME280;11456;47.030;15.396;2023-10-31T01:13:47;96118.44;;;15.31;100.00
22580;BME280;11456;47.030;15.396;2023-10-31T01:16:14;96118.16;;;15.39;100.00
22580;BME280;11456;47.030;15.396;2023-10-31T01:18:41;96116.59;;;15.56;100.00
22580;BME280;11456;47.030;15.396;2023-10-31T01:21:07;96122.69;;;15.76;100.00
22580;BME280;11456;47.030;15.396;2023-10-31T01:23:35;96130.75;;;16.08;100.00
22580;BME280;11456;47.030;15.396;2023-10-31T01:26:02;96141.38;;;16.52;100.00
22580;BME280;11456;47.030;15.396;2023-10-31T01:28:29;96141.53;;;16.94;100.00
22580;BME280;11456;47.030;15.396;2023-10-31T01:30:55;96140.06;;;17.39;100.00
22580;BME280;11456;47.030;15.396;2023-10-31T01:33:23;96143.91;;;17.20;100.00
22580;BME280;11456;47.030;15.396;2023-10-31T01:35:50;96138.09;;;17.46;100.00
22580;BME280;11456;47.030;15.396;2023-10-31T01:38:17;96144.03;;;17.25;100.00
22580;BME280;11456;47.030;15.396;2023-10-31T01:40:43;96138.28;;;17.33;100.00
22580;BME280;11456;47.030;15.396;2023-10-31T01:43:10;96131.91;;;17.39;100.00
22580;BME280;11456;47.030;15.396;2023-10-31T01:45:37;96126.81;;;17.01;100.00
22580;BME280;11456;47.030;15.396;2023-10-31T01:48:04;96117.34;;;17.04;100.00
22580;BME280;11456;47.030;15.396;2023-10-31T01:50:31;96107.63;;;17.26;100.00
22580;BME280;11456;47.030;15.396;2023-10-31T01:52:58;96113.44;;;17.00;100.00
22580;BME280;11456;47.030;15.396;2023-10-31T01:55:25;96107.31;;;17.16;100.00
22580;BME280;11456;47.030;15.396;2023-10-31T01:57:54;96115.09;;;17.01;100.00
22580;BME280;11456;47.030;15.396;2023-10-31T02:00:21;96108.44;;;16.97;100.00
22580;BME280;11456;47.030;15.396;2023-10-31T02:02:48;96112.69;;;16.93;100.00
22580;BME280;11456;47.030;15.396;2023-10-31T02:05:18;96110.63;;;16.52;100.00
22580;BME280;11456;47.030;15.396;2023-10-31T02:07:45;96109.38;;;16.54;100.00
22580;BME280;11456;47.030;15.396;2023-10-31T02:10:12;96088.13;;;16.69;100.00
22580;BME280;11456;47.030;15.396;2023-10-31T02:12:39;96097.19;;;16.63;100.00
22580;BME280;11456;47.030;15.396;2023-10-31T02:15:06;96088.41;;;16.43;100.00
22580;BME280;11456;47.030;15.396;2023-10-31T02:17:32;96097.75;;;16.47;100.00
22580;BME280;11456;47.030;15.396;2023-10-31T02:19:59;96081.16;;;16.73;100.00
22580;BME280;11456;47.030;15.396;2023-10-31T02:22:26;96081.84;;;16.51;100.00
22580;BME280;11456;47.030;15.396;2023-10-31T02:24:53;96073.91;;;16.31;100.00
22580;BME280;11456;47.030;15.396;2023-10-31T02:27:19;96077.06;;;16.28;100.00
22580;BME280;11456;47.030;15.396;2023-10-31T02:29:46;96068.41;;;16.37;100.00
22580;BME280;11456;47.030;15.396;2023-10-31T02:32:13;96044.31;;;16.41;100.00
22580;BME280;11456;47.030;15.396;2023-10-31T02:34:40;96055.34;;;16.28;100.00
22580;BME280;11456;47.030;15.396;2023-10-31T02:37:07;96047.13;;;16.16;100.00
22580;BME280;11456;47.030;15.396;2023-10-31T02:39:33;96040.53;;;16.42;100.00
22580;BME280;11456;47.030;15.396;2023-10-31T02:42:00;96012.66;;;15.98;100.00
22580;BME280;11456;47.030;15.396;2023-10-31T02:44:27;95992.81;;;16.16;100.00
22580;BME280;11456;47.030;15.396;2023-10-31T02:46:54;95998.47;;;15.96;100.00
22580;BME280;11456;47.030;15.396;2023-10-31T02:49:21;95977.94;;;16.00;100.00
22580;BME280;11456;47.030;15.396;2023-10-31T02:51:48;95974.66;;;15.98;100.00
22580;BME280;11456;47.030;15.396;2023-10-31T02:54:15;95965.59;;;16.04;100.00
22580;BME280;11456;47.030;15.396;2023-10-31T02:56:42;95960.75;;;16.25;100.00
22580;BME280;11456;47.030;15.396;2023-10-31T02:59:09;95944.00;;;16.10;100.00
22580;BME280;11456;47.030;15.396;2023-10-31T03:01:35;95972.44;;;16.07;100.00
22580;BME280;11456;47.030;15.396;2023-10-31T03:04:03;95988.44;;;15.97;100.00
22580;BME280;11456;47.030;15.396;2023-10-31T03:06:30;95999.66;;;16.00;100.00
22580;BME280;11456;47.030;15.396;2023-10-31T03:08:58;96046.75;;;16.13;100.00
22580;BME280;11456;47.030;15.396;2023-10-31T03:11:25;96038.91;;;16.04;100.00
22580;BME280;11456;47.030;15.396;2023-10-31T03:13:53;96026.38;;;16.03;100.00
22580;BME280;11456;47.030;15.396;2023-10-31T03:16:20;96017.25;;;15.80;100.00
22580;BME280;11456;47.030;15.396;2023-10-31T03:18:48;96023.94;;;15.95;100.00
22580;BME280;11456;47.030;15.396;2023-10-31T03:21:15;96022.28;;;15.94;100.00
22580;BME280;11456;47.030;15.396;2023-10-31T03:23:43;96043.69;;;15.66;100.00
22580;BME280;11456;47.030;15.396;2023-10-31T03:26:10;96043.72;;;15.84;100.00
22580;BME280;11456;47.030;15.396;2023-10-31T03:28:38;96044.31;;;15.68;100.00
22580;BME280;11456;47.030;15.396;2023-10-31T03:31:05;96037.53;;;15.52;100.00
22580;BME280;11456;47.030;15.396;2023-10-31T03:33:31;96039.00;;;15.55;100.00
22580;BME280;11456;47.030;15.396;2023-10-31T03:35:59;96042.03;;;15.83;100.00
22580;BME280;11456;47.030;15.396;2023-10-31T03:38:25;96048.84;;;15.74;100.00
22580;BME280;11456;47.030;15.396;2023-10-31T03:40:53;96040.22;;;15.77;100.00
22580;BME280;11456;47.030;15.396;2023-10-31T03:43:20;96031.16;;;15.65;100.00
22580;BME280;11456;47.030;15.396;2023-10-31T03:45:46;96027.72;;;15.51;100.00
22580;BME280;11456;47.030;15.396;2023-10-31T03:48:16;96040.56;;;15.38;100.00
22580;BME280;11456;47.030;15.396;2023-10-31T03:50:43;96019.91;;;15.37;100.00
22580;BME280;11456;47.030;15.396;2023-10-31T03:53:10;96003.19;;;15.40;100.00
22580;BME280;11456;47.030;15.396;2023-10-31T03:55:37;96013.28;;;15.33;100.00
22580;BME280;11456;47.030;15.396;2023-10-31T03:58:04;96010.88;;;15.43;100.00
22580;BME280;11456;47.030;15.396;2023-10-31T04:00:30;96003.56;;;15.43;100.00
22580;BME280;11456;47.030;15.396;2023-10-31T04:02:57;95995.31;;;15.32;100.00
22580;BME280;11456;47.030;15.396;2023-10-31T04:05:24;96004.63;;;15.17;100.00
22580;BME280;11456;47.030;15.396;2023-10-31T04:07:51;96015.16;;;15.07;100.00
22580;BME280;11456;47.030;15.396;2023-10-31T04:10:18;96016.59;;;15.35;100.00
22580;BME280;11456;47.030;15.396;2023-10-31T04:12:45;96014.03;;;15.40;100.00
22580;BME280;11456;47.030;15.396;2023-10-31T04:15:12;96015.75;;;15.34;100.00
22580;BME280;11456;47.030;15.396;2023-10-31T04:17:38;96022.81;;;15.42;100.00
22580;BME280;11456;47.030;15.396;2023-10-31T04:20:06;96024.22;;;15.44;100.00
22580;BME280;11456;47.030;15.396;2023-10-31T04:22:33;96038.28;;;15.35;100.00
22580;BME280;11456;47.030;15.396;2023-10-31T04:24:59;96059.44;;;15.51;100.00
22580;BME280;11456;47.030;15.396;2023-10-31T04:27:26;96034.97;;;15.33;100.00
22580;BME280;11456;47.030;15.396;2023-10-31T04:29:52;96040.38;;;15.33;100.00
22580;BME280;11456;47.030;15.396;2023-10-31T04:32:19;96046.59;;;15.40;100.00
22580;BME280;11456;47.030;15.396;2023-10-31T04:34:46;96024.56;;;15.30;100.00
22580;BME280;11456;47.030;15.396;2023-10-31T04:37:13;96029.94;;;15.36;100.00
22580;BME280;11456;47.030;15.396;2023-10-31T04:39:39;96025.28;;;15.43;100.00
22580;BME280;11456;47.030;15.396;2023-10-31T04:42:06;96037.69;;;15.33;100.00
22580;BME280;11456;47.030;15.396;2023-10-31T04:44:32;96019.56;;;15.27;100.00
22580;BME280;11456;47.030;15.396;2023-10-31T04:46:59;96015.25;;;15.44;100.00
22580;BME280;11456;47.030;15.396;2023-10-31T04:49:26;96012.38;;;15.39;100.00
22580;BME280;11456;47.030;15.396;2023-10-31T04:51:53;96013.59;;;15.43;100.00
22580;BME280;11456;47.030;15.396;2023-10-31T04:54:19;96027.72;;;15.51;100.00
22580;BME280;11456;47.030;15.396;2023-10-31T04:56:47;96020.16;;;15.60;100.00
22580;BME280;11456;47.030;15.396;2023-10-31T04:59:14;96014.72;;;15.60;100.00
22580;BME280;11456;47.030;15.396;2023-10-31T05:01:40;96029.41;;;15.52;100.00
22580;BME280;11456;47.030;15.396;2023-10-31T05:04:07;96015.63;;;15.54;100.00
22580;BME280;11456;47.030;15.396;2023-10-31T05:06:39;96018.16;;;15.49;100.00
22580;BME280;11456;47.030;15.396;2023-10-31T05:09:05;96031.09;;;15.47;100.00
22580;BME280;11456;47.030;15.396;2023-10-31T05:11:32;96030.69;;;15.43;100.00
22580;BME280;11456;47.030;15.396;2023-10-31T05:13:59;96040.34;;;15.39;100.00
22580;BME280;11456;47.030;15.396;2023-10-31T05:16:26;96046.59;;;15.40;100.00
22580;BME280;11456;47.030;15.396;2023-10-31T05:18:52;96032.41;;;15.38;100.00
22580;BME280;11456;47.030;15.396;2023-10-31T05:21:20;96031.38;;;15.39;100.00
22580;BME280;11456;47.030;15.396;2023-10-31T05:23:50;96028.81;;;15.19;100.00
22580;BME280;11456;47.030;15.396;2023-10-31T05:26:17;96040.53;;;15.13;100.00
22580;BME280;11456;47.030;15.396;2023-10-31T05:28:43;96046.06;;;15.00;100.00
22580;BME280;11456;47.030;15.396;2023-10-31T05:31:10;96063.00;;;14.95;100.00
22580;BME280;11456;47.030;15.396;2023-10-31T05:33:37;96067.69;;;15.06;100.00
22580;BME280;11456;47.030;15.396;2023-10-31T05:36:04;96075.22;;;15.04;100.00
22580;BME280;11456;47.030;15.396;2023-10-31T05:38:31;96079.41;;;15.00;100.00
22580;BME280;11456;47.030;15.396;2023-10-31T05:40:58;96084.81;;;15.07;100.00
22580;BME280;11456;47.030;15.396;2023-10-31T05:43:24;96101.97;;;14.94;100.00
22580;BME280;11456;47.030;15.396;2023-10-31T05:45:51;96100.69;;;15.03;100.00
22580;BME280;11456;47.030;15.396;2023-10-31T05:48:18;96103.19;;;14.98;100.00
22580;BME280;11456;47.030;15.396;2023-10-31T05:50:44;96094.47;;;14.96;100.00
22580;BME280;11456;47.030;15.396;2023-10-31T05:53:11;96090.88;;;15.02;100.00
22580;BME280;11456;47.030;15.396;2023-10-31T05:55:39;96098.97;;;15.09;100.00
22580;BME280;11456;47.030;15.396;2023-10-31T05:58:06;96100.69;;;15.03;100.00
22580;BME280;11456;47.030;15.396;2023-10-31T06:00:33;96089.44;;;15.00;100.00
22580;BME280;11456;47.030;15.396;2023-10-31T06:02:59;96088.75;;;15.04;100.00
22580;BME280;11456;47.030;15.396;2023-10-31T06:05:26;96077.34;;;15.02;100.00
22580;BME280;11456;47.030;15.396;2023-10-31T06:07:53;96074.69;;;14.89;100.00
22580;BME280;11456;47.030;15.396;2023-10-31T06:10:19;96061.56;;;14.86;100.00
22580;BME280;11456;47.030;15.396;2023-10-31T06:12:47;96041.91;;;14.97;100.00
22580;BME280;11456;47.030;15.396;2023-10-31T06:15:14;96058.53;;;15.07;100.00
22580;BME280;11456;47.030;15.396;2023-10-31T06:17:41;96068.53;;;15.07;100.00
22580;BME280;11456;47.030;15.396;2023-10-31T06:20:08;96075.66;;;15.01;100.00
22580;BME280;11456;47.030;15.396;2023-10-31T06:22:35;96079.59;;;15.05;100.00
22580;BME280;11456;47.030;15.396;2023-10-31T06:25:02;96086.81;;;15.18;100.00
22580;BME280;11456;47.030;15.396;2023-10-31T06:27:29;96093.56;;;15.09;100.00
22580;BME280;11456;47.030;15.396;2023-10-31T06:29:55;96110.00;;;14.76;100.00
22580;BME280;11456;47.030;15.396;2023-10-31T06:32:42;96114.03;;;14.98;100.00
22580;BME280;11456;47.030;15.396;2023-10-31T06:35:09;96101.66;;;15.15;100.00
22580;BME280;11456;47.030;15.396;2023-10-31T06:37:35;96101.06;;;15.07;100.00
22580;BME280;11456;47.030;15.396;2023-10-31T06:40:04;96100.94;;;14.95;100.00
22580;BME280;11456;47.030;15.396;2023-10-31T06:42:30;96114.50;;;14.95;100.00
22580;BME280;11456;47.030;15.396;2023-10-31T06:44:57;96116.56;;;14.93;100.00
22580;BME280;11456;47.030;15.396;2023-10-31T06:47:24;96116.75;;;14.98;100.00
22580;BME280;11456;47.030;15.396;2023-10-31T06:49:51;96118.78;;;15.09;100.00
22580;BME280;11456;47.030;15.396;2023-10-31T06:52:17;96108.56;;;15.05;100.00
22580;BME280;11456;47.030;15.396;2023-10-31T06:54:44;96115.69;;;14.99;100.00
22580;BME280;11456;47.030;15.396;2023-10-31T06:57:10;96122.00;;;14.93;100.00
22580;BME280;11456;47.030;15.396;2023-10-31T06:59:37;96116.88;;;15.16;100.00
22580;BME280;11456;47.030;15.396;2023-10-31T07:02:04;96118.16;;;15.07;100.00
22580;BME280;11456;47.030;15.396;2023-10-31T07:04:31;96104.41;;;15.09;100.00
22580;BME280;11456;47.030;15.396;2023-10-31T07:06:58;96097.97;;;15.03;100.00
22580;BME280;11456;47.030;15.396;2023-10-31T07:09:25;96105.97;;;15.23;100.00
22580;BME280;11456;47.030;15.396;2023-10-31T07:11:52;96118.16;;;15.07;100.00
22580;BME280;11456;47.030;15.396;2023-10-31T07:14:19;96120.25;;;15.05;100.00
22580;BME280;11456;47.030;15.396;2023-10-31T07:16:47;96111.94;;;15.00;100.00
22580;BME280;11456;47.030;15.396;2023-10-31T07:19:15;96112.03;;;14.87;100.00
22580;BME280;11456;47.030;15.396;2023-10-31T07:21:42;96098.66;;;14.92;100.00
22580;BME280;11456;47.030;15.396;2023-10-31T07:24:08;96088.47;;;14.88;100.00
22580;BME280;11456;47.030;15.396;2023-10-31T07:26:35;96092.19;;;14.93;100.00
22580;BME280;11456;47.030;15.396;2023-10-31T07:29:02;96086.75;;;14.93;100.00
22580;BME280;11456;47.030;15.396;2023-10-31T07:31:29;96080.13;;;15.20;100.00
22580;BME280;11456;47.030;15.396;2023-10-31T07:33:56;96097.44;;;14.88;100.00
22580;BME280;11456;47.030;15.396;2023-10-31T07:36:22;96103.66;;;14.95;100.00
22580;BME280;11456;47.030;15.396;2023-10-31T07:38:49;96110.06;;;14.63;100.00
22580;BME280;11456;47.030;15.396;2023-10-31T07:41:16;96106.44;;;14.82;100.00
22580;BME280;11456;47.030;15.396;2023-10-31T07:43:43;96093.16;;;15.05;100.00
22580;BME280;11456;47.030;15.396;2023-10-31T07:46:09;96079.00;;;15.03;100.00
22580;BME280;11456;47.030;15.396;2023-10-31T07:48:36;96093.09;;;15.12;100.00
22580;BME280;11456;47.030;15.396;2023-10-31T07:51:03;96101.66;;;15.15;100.00
22580;BME280;11456;47.030;15.396;2023-10-31T07:53:29;96087.00;;;15.23;100.00
22580;BME280;11456;47.030;15.396;2023-10-31T07:55:56;96079.66;;;15.23;100.00
22580;BME280;11456;47.030;15.396;2023-10-31T07:58:23;96086.16;;;15.54;100.00
22580;BME280;11456;47.030;15.396;2023-10-31T08:00:49;96082.28;;;15.68;100.00
22580;BME280;11456;47.030;15.396;2023-10-31T08:03:16;96094.34;;;15.72;100.00
22580;BME280;11456;47.030;15.396;2023-10-31T08:05:43;96096.47;;;15.88;100.00
22580;BME280;11456;47.030;15.396;2023-10-31T08:08:10;96094.53;;;15.95;100.00
22580;BME280;11456;47.030;15.396;2023-10-31T08:10:36;96081.44;;;16.11;100.00
22580;BME280;11456;47.030;15.396;2023-10-31T08:13:03;96080.75;;;15.97;100.00
22580;BME280;11456;47.030;15.396;2023-10-31T08:15:30;96092.16;;;16.06;100.00
22580;BME280;11456;47.030;15.396;2023-10-31T08:17:56;96079.91;;;15.96;100.00
22580;BME280;11456;47.030;15.396;2023-10-31T08:20:23;96072.75;;;16.02;100.00
22580;BME280;11456;47.030;15.396;2023-10-31T08:22:50;96083.25;;;15.98;100.00
22580;BME280;11456;47.030;15.396;2023-10-31T08:25:16;96080.97;;;15.95;100.00
22580;BME280;11456;47.030;15.396;2023-10-31T08:27:43;96085.47;;;15.83;100.00
22580;BME280;11456;47.030;15.396;2023-10-31T08:30:10;96077.59;;;15.75;100.00
22580;BME280;11456;47.030;15.396;2023-10-31T08:32:37;96092.53;;;15.66;100.00
22580;BME280;11456;47.030;15.396;2023-10-31T08:35:04;96100.78;;;15.53;100.00
22580;BME280;11456;47.030;15.396;2023-10-31T08:37:31;96106.88;;;15.42;100.00
22580;BME280;11456;47.030;15.396;2023-10-31T08:39:58;96106.53;;;15.63;100.00
22580;BME280;11456;47.030;15.396;2023-10-31T08:42:24;96101.59;;;15.53;100.00
22580;BME280;11456;47.030;15.396;2023-10-31T08:44:51;96102.44;;;15.54;100.00
22580;BME280;11456;47.030;15.396;2023-10-31T08:47:17;96101.56;;;15.60;100.00
22580;BME280;11456;47.030;15.396;2023-10-31T08:49:45;96113.28;;;15.54;100.00
22580;BME280;11456;47.030;15.396;2023-10-31T08:52:11;96107.81;;;15.60;100.00
22580;BME280;11456;47.030;15.396;2023-10-31T08:54:38;96099.44;;;15.62;100.00
22580;BME280;11456;47.030;15.396;2023-10-31T08:57:05;96099.06;;;15.52;100.00
22580;BME280;11456;47.030;15.396;2023-10-31T08:59:31;96095.78;;;15.43;100.00
22580;BME280;11456;47.030;15.396;2023-10-31T09:01:58;96102.47;;;15.47;100.00
22580;BME280;11456;47.030;15.396;2023-10-31T09:04:24;96107.88;;;15.47;100.00
22580;BME280;11456;47.030;15.396;2023-10-31T09:06:51;96114.50;;;15.27;100.00
22580;BME280;11456;47.030;15.396;2023-10-31T09:09:18;96127.22;;;15.26;100.00
22580;BME280;11456;47.030;15.396;2023-10-31T09:11:44;96127.44;;;15.24;100.00
22580;BME280;11456;47.030;15.396;2023-10-31T09:14:11;96139.69;;;15.34;100.00
22580;BME280;11456;47.030;15.396;2023-10-31T09:16:38;96152.28;;;15.21;100.00
22580;BME280;11456;47.030;15.396;2023-10-31T09:19:04;96149.59;;;15.21;100.00
22580;BME280;11456;47.030;15.396;2023-10-31T09:21:31;96147.75;;;15.15;100.00
22580;BME280;11456;47.030;15.396;2023-10-31T09:23:58;96174.41;;;15.18;100.00
22580;BME280;11456;47.030;15.396;2023-10-31T09:26:24;96202.78;;;15.22;100.00
22580;BME280;11456;47.030;15.396;2023-10-31T09:28:51;96235.78;;;15.06;100.00
22580;BME280;11456;47.030;15.396;2023-10-31T09:31:18;96233.72;;;15.08;100.00
22580;BME280;11456;47.030;15.396;2023-10-31T09:33:45;96220.91;;;14.71;100.00
22580;BME280;11456;47.030;15.396;2023-10-31T09:36:12;96206.19;;;14.40;100.00
22580;BME280;11456;47.030;15.396;2023-10-31T09:38:40;96208.19;;;14.78;100.00
22580;BME280;11456;47.030;15.396;2023-10-31T09:41:07;96246.78;;;14.34;100.00
22580;BME280;11456;47.030;15.396;2023-10-31T09:43:34;96265.34;;;14.50;100.00
22580;BME280;11456;47.030;15.396;2023-10-31T09:46:01;96275.97;;;14.52;100.00
22580;BME280;11456;47.030;15.396;2023-10-31T09:48:28;96271.38;;;14.59;100.00
22580;BME280;11456;47.030;15.396;2023-10-31T09:50:56;96270.13;;;14.41;100.00
22580;BME280;11456;47.030;15.396;2023-10-31T09:53:23;96289.06;;;14.68;100.00
22580;BME280;11456;47.030;15.396;2023-10-31T09:55:51;96292.63;;;14.49;100.00
22580;BME280;11456;47.030;15.396;2023-10-31T09:58:20;96296.19;;;14.42;100.00
22580;BME280;11456;47.030;15.396;2023-10-31T10:00:47;96282.63;;;14.56;100.00
22580;BME280;11456;47.030;15.396;2023-10-31T10:03:14;96267.25;;;15.14;100.00
22580;BME280;11456;47.030;15.396;2023-10-31T10:05:43;96267.19;;;14.76;100.00
22580;BME280;11456;47.030;15.396;2023-10-31T10:08:10;96274.72;;;14.48;100.00
22580;BME280;11456;47.030;15.396;2023-10-31T10:10:37;96261.78;;;14.69;100.00
22580;BME280;11456;47.030;15.396;2023-10-31T10:13:03;96239.72;;;14.53;100.00
22580;BME280;11456;47.030;15.396;2023-10-31T10:15:43;96234.31;;;14.39;100.00
22580;BME280;11456;47.030;15.396;2023-10-31T10:18:09;96221.38;;;14.55;100.00
22580;BME280;11456;47.030;15.396;2023-10-31T10:20:36;96226.38;;;14.51;100.00
22580;BME280;11456;47.030;15.396;2023-10-31T10:23:20;96202.00;;;14.51;100.00
22580;BME280;11456;47.030;15.396;2023-10-31T10:25:49;96218.84;;;14.53;100.00
22580;BME280;11456;47.030;15.396;2023-10-31T10:28:16;96248.47;;;14.02;100.00
22580;BME280;11456;47.030;15.396;2023-10-31T10:30:45;96254.69;;;13.96;100.00
22580;BME280;11456;47.030;15.396;2023-10-31T10:33:12;96272.22;;;14.26;100.00
22580;BME280;11456;47.030;15.396;2023-10-31T10:35:38;96300.56;;;14.63;100.00
22580;BME280;11456;47.030;15.396;2023-10-31T10:38:10;96313.66;;;14.20;100.00
22580;BME280;11456;47.030;15.396;2023-10-31T10:40:46;96290.09;;;14.67;100.00
22580;BME280;11456;47.030;15.396;2023-10-31T10:43:26;96274.28;;;14.24;100.00
22580;BME280;11456;47.030;15.396;2023-10-31T10:45:57;96267.00;;;14.25;100.00
22580;BME280;11456;47.030;15.396;2023-10-31T10:48:26;96255.97;;;14.26;100.00
22580;BME280;11456;47.030;15.396;2023-10-31T10:51:08;96215.16;;;13.88;100.00
22580;BME280;11456;47.030;15.396;2023-10-31T10:53:56;96206.81;;;13.63;100.00
22580;BME280;11456;47.030;15.396;2023-10-31T10:56:46;96178.94;;;13.43;100.00
22580;BME280;11456;47.030;15.396;2023-10-31T10:59:20;96149.78;;;13.85;100.00
22580;BME280;11456;47.030;15.396;2023-10-31T11:01:47;96107.16;;;13.54;100.00
22580;BME280;11456;47.030;15.396;2023-10-31T11:04:15;96093.63;;;13.47;100.00
22580;BME280;11456;47.030;15.396;2023-10-31T11:06:43;96134.81;;;13.89;100.00
22580;BME280;11456;47.030;15.396;2023-10-31T11:09:11;96155.22;;;13.58;100.00
22580;BME280;11456;47.030;15.396;2023-10-31T11:11:40;96177.28;;;13.62;100.00
22580;BME280;11456;47.030;15.396;2023-10-31T11:14:07;96171.00;;;13.35;100.00
22580;BME280;11456;47.030;15.396;2023-10-31T11:16:41;96190.56;;;13.63;100.00
22580;BME280;11456;47.030;15.396;2023-10-31T11:19:10;96179.97;;;14.08;100.00
22580;BME280;11456;47.030;15.396;2023-10-31T11:21:56;96169.09;;;14.21;100.00
22580;BME280;11456;47.030;15.396;2023-10-31T11:24:36;96180.38;;;14.18;100.00
22580;BME280;11456;47.030;15.396;2023-10-31T11:27:06;96198.94;;;13.75;100.00
22580;BME280;11456;47.030;15.396;2023-10-31T11:29:36;96230.97;;;13.72;100.00
22580;BME280;11456;47.030;15.396;2023-10-31T11:32:03;96252.41;;;13.80;100.00
22580;BME280;11456;47.030;15.396;2023-10-31T11:34:30;96265.06;;;13.59;100.00
22580;BME280;11456;47.030;15.396;2023-10-31T11:37:31;96289.25;;;13.74;100.00
22580;BME280;11456;47.030;15.396;2023-10-31T11:42:41;96310.38;;;13.44;100.00
22580;BME280;11456;47.030;15.396;2023-10-31T11:45:08;96300.66;;;13.56;100.00
22580;BME280;11456;47.030;15.396;2023-10-31T11:47:51;96290.44;;;13.58;100.00
22580;BME280;11456;47.030;15.396;2023-10-31T11:50:18;96286.72;;;13.59;100.00
22580;BME280;11456;47.030;15.396;2023-10-31T11:52:45;96298.41;;;13.80;100.00
22580;BME280;11456;47.030;15.396;2023-10-31T11:55:24;96299.63;;;13.71;100.00
22580;BME280;11456;47.030;15.396;2023-10-31T11:57:51;96306.25;;;13.55;100.00
22580;BME280;11456;47.030;15.396;2023-10-31T12:00:21;96282.13;;;13.53;100.00
22580;BME280;11456;47.030;15.396;2023-10-31T12:03:01;96282.47;;;13.31;100.00
22580;BME280;11456;47.030;15.396;2023-10-31T12:05:28;96278.81;;;13.64;100.00
22580;BME280;11456;47.030;15.396;2023-10-31T12:07:56;96300.00;;;13.54;100.00
22580;BME280;11456;47.030;15.396;2023-10-31T12:10:28;96307.41;;;13.26;100.00
22580;BME280;11456;47.030;15.396;2023-10-31T12:12:58;96310.28;;;12.83;100.00
22580;BME280;11456;47.030;15.396;2023-10-31T12:15:25;96296.91;;;13.10;100.00
22580;BME280;11456;47.030;15.396;2023-10-31T12:17:52;96298.25;;;13.27;100.00
22580;BME280;11456;47.030;15.396;2023-10-31T12:20:19;96301.34;;;13.17;100.00
22580;BME280;11456;47.030;15.396;2023-10-31T12:22:45;96311.84;;;13.06;100.00
22580;BME280;11456;47.030;15.396;2023-10-31T12:25:12;96317.69;;;13.09;100.00
22580;BME280;11456;47.030;15.396;2023-10-31T12:27:45;96330.69;;;13.27;100.00
22580;BME280;11456;47.030;15.396;2023-10-31T12:30:15;96344.06;;;13.35;100.00
22580;BME280;11456;47.030;15.396;2023-10-31T12:32:43;96344.09;;;13.48;100.00
22580;BME280;11456;47.030;15.396;2023-10-31T12:35:12;96349.47;;;13.35;100.00
22580;BME280;11456;47.030;15.396;2023-10-31T12:37:45;96349.69;;;13.40;100.00
22580;BME280;11456;47.030;15.396;2023-10-31T12:40:21;96348.22;;;13.38;100.00
22580;BME280;11456;47.030;15.396;2023-10-31T12:42:49;96353.19;;;13.34;100.00
22580;BME280;11456;47.030;15.396;2023-10-31T12:45:18;96353.53;;;13.18;100.00